createdAt,value
2017-05-20T00:00:52.339Z,56.60
2017-05-20T00:01:53.676Z,56.96
2017-05-20T00:03:15.088Z,56.90
2017-05-20T00:04:16.437Z,56.51
2017-05-20T00:05:37.862Z,56.32
2017-05-20T00:06:39.201Z,56.32
2017-05-20T00:08:00.613Z,56.70
2017-05-20T00:09:01.952Z,56.60
2017-05-20T00:10:23.680Z,56.32
2017-05-20T00:11:25.018Z,56.32
2017-05-20T00:12:46.434Z,56.80
2017-05-20T00:13:47.772Z,56.32
2017-05-20T00:15:09.174Z,55.83
2017-05-20T00:16:10.520Z,56.58
2017-05-20T00:17:31.950Z,56.41
2017-05-20T00:18:33.292Z,56.60
2017-05-20T00:19:54.695Z,56.41
2017-05-20T00:20:56.040Z,56.90
2017-05-20T00:22:18.471Z,56.77
2017-05-20T00:23:19.807Z,56.87
2017-05-20T00:24:41.219Z,56.77
2017-05-20T00:25:42.562Z,56.58
2017-05-20T00:27:06.000Z,56.80
2017-05-20T00:28:07.339Z,56.51
2017-05-20T00:29:08.689Z,56.32
2017-05-20T00:30:10.027Z,56.12
2017-05-20T00:31:11.366Z,55.65
2017-05-20T00:32:12.711Z,55.65
2017-05-20T00:33:14.055Z,55.65
2017-05-20T00:34:15.398Z,55.55
2017-05-20T00:35:16.742Z,55.65
2017-05-20T00:36:18.088Z,55.83
2017-05-20T00:37:19.427Z,55.35
2017-05-20T00:38:20.772Z,55.65
2017-05-20T00:39:22.115Z,55.65
2017-05-20T00:40:23.456Z,55.83
2017-05-20T00:41:24.804Z,55.83
2017-05-20T00:42:26.150Z,55.93
2017-05-20T00:43:27.494Z,55.74
2017-05-20T00:44:28.840Z,55.83
2017-05-20T00:45:30.179Z,55.93
2017-05-20T00:46:31.522Z,55.81
2017-05-20T00:47:32.869Z,55.93
2017-05-20T00:48:34.216Z,55.62
2017-05-20T00:49:35.558Z,55.90
2017-05-20T00:50:36.896Z,55.65
2017-05-20T00:51:38.240Z,55.93
2017-05-20T00:52:39.581Z,55.74
2017-05-20T00:53:40.923Z,55.74
2017-05-20T00:54:42.271Z,56.10
2017-05-20T00:55:43.613Z,56.10
2017-05-20T00:56:44.951Z,55.55
2017-05-20T00:57:46.306Z,55.62
2017-05-20T00:58:47.649Z,56.29
2017-05-20T00:59:48.996Z,56.38
2017-05-20T01:00:50.335Z,55.71
2017-05-20T01:01:51.682Z,56.29
2017-05-20T01:02:53.025Z,56.96
2017-05-20T01:03:54.370Z,56.77
2017-05-20T01:04:55.709Z,56.58
2017-05-20T01:05:57.047Z,56.00
2017-05-20T01:06:58.389Z,56.20
2017-05-20T01:07:59.729Z,56.48
2017-05-20T01:09:01.069Z,56.29
2017-05-20T01:10:02.410Z,55.81
2017-05-20T01:11:03.750Z,56.38
2017-05-20T01:12:05.088Z,56.20
2017-05-20T01:13:06.434Z,56.29
2017-05-20T01:14:07.779Z,56.20
2017-05-20T01:15:09.123Z,55.81
2017-05-20T01:16:10.466Z,55.71
2017-05-20T01:17:11.821Z,55.81
2017-05-20T01:18:13.165Z,55.62
2017-05-20T01:19:14.504Z,55.81
2017-05-20T01:20:15.842Z,56.00
2017-05-20T01:21:17.184Z,56.48
2017-05-20T01:22:18.529Z,55.71
2017-05-20T01:23:19.867Z,55.81
2017-05-20T01:24:21.299Z,55.62
2017-05-20T01:25:22.641Z,55.71
2017-05-20T01:26:23.974Z,56.10
2017-05-20T01:27:25.316Z,56.77
2017-05-20T01:28:26.662Z,56.58
2017-05-20T01:29:28.013Z,56.38
2017-05-20T01:30:29.354Z,55.62
2017-05-20T01:31:30.692Z,55.62
2017-05-20T01:32:32.032Z,55.62
2017-05-20T01:33:33.383Z,56.58
2017-05-20T01:34:34.728Z,55.90
2017-05-20T01:35:36.065Z,56.20
2017-05-20T01:36:37.406Z,55.90
2017-05-20T01:37:38.751Z,55.62
2017-05-20T01:38:40.099Z,55.43
2017-05-20T01:39:41.440Z,55.33
2017-05-20T01:40:42.776Z,55.23
2017-05-20T01:41:44.119Z,55.52
2017-05-20T01:42:45.460Z,55.71
2017-05-20T01:43:46.802Z,55.04
2017-05-20T01:44:48.145Z,55.52
2017-05-20T01:45:49.485Z,55.90
2017-05-20T01:46:50.825Z,55.81
2017-05-20T01:47:52.166Z,56.29
2017-05-20T01:48:53.511Z,56.00
2017-05-20T01:49:54.853Z,56.58
2017-05-20T01:50:56.197Z,55.62
2017-05-20T01:51:57.539Z,55.62
2017-05-20T01:52:58.881Z,56.00
2017-05-20T01:54:00.217Z,55.62
2017-05-20T01:55:01.555Z,55.13
2017-05-20T01:56:02.898Z,55.43
2017-05-20T01:57:04.244Z,55.04
2017-05-20T01:58:05.583Z,55.62
2017-05-20T01:59:06.924Z,56.07
2017-05-20T02:00:08.267Z,55.62
2017-05-20T02:01:09.611Z,55.71
2017-05-20T02:02:10.948Z,55.71
2017-05-20T02:03:12.289Z,55.71
2017-05-20T02:04:13.648Z,55.59
2017-05-20T02:05:14.986Z,56.16
2017-05-20T02:06:16.390Z,56.26
2017-05-20T02:07:17.715Z,55.68
2017-05-20T02:08:19.065Z,55.71
2017-05-20T02:09:20.401Z,55.62
2017-05-20T02:10:21.745Z,55.52
2017-05-20T02:11:23.086Z,55.43
2017-05-20T02:12:24.427Z,55.43
2017-05-20T02:13:25.769Z,55.33
2017-05-20T02:14:27.110Z,55.52
2017-05-20T02:15:28.454Z,55.88
2017-05-20T02:16:29.793Z,55.13
2017-05-20T02:17:31.135Z,55.43
2017-05-20T02:18:32.477Z,55.33
2017-05-20T02:19:33.836Z,55.62
2017-05-20T02:20:35.166Z,55.23
2017-05-20T02:21:36.508Z,55.68
2017-05-20T02:22:37.851Z,55.59
2017-05-20T02:23:39.191Z,55.30
2017-05-20T02:24:40.535Z,55.20
2017-05-20T02:25:41.876Z,55.49
2017-05-20T02:26:43.218Z,55.20
2017-05-20T02:27:44.562Z,55.98
2017-05-20T02:28:45.905Z,55.30
2017-05-20T02:29:47.244Z,55.49
2017-05-20T02:30:48.581Z,55.40
2017-05-20T02:31:49.922Z,55.40
2017-05-20T02:32:51.281Z,55.49
2017-05-20T02:33:52.621Z,55.11
2017-05-20T02:34:53.965Z,55.49
2017-05-20T02:35:55.327Z,55.98
2017-05-20T02:36:56.663Z,55.78
2017-05-20T02:37:58.004Z,55.59
2017-05-20T02:38:59.344Z,55.66
2017-05-20T02:40:00.682Z,56.16
2017-05-20T02:41:02.021Z,55.59
2017-05-20T02:42:03.360Z,55.59
2017-05-20T02:43:04.699Z,55.11
2017-05-20T02:44:06.040Z,55.59
2017-05-20T02:45:07.375Z,55.49
2017-05-20T02:46:08.716Z,55.20
2017-05-20T02:47:10.058Z,55.49
2017-05-20T02:48:11.402Z,55.98
2017-05-20T02:49:12.739Z,55.66
2017-05-20T02:50:14.081Z,55.78
2017-05-20T02:51:15.454Z,55.68
2017-05-20T02:52:16.760Z,55.78
2017-05-20T02:53:18.102Z,55.20
2017-05-20T02:54:19.450Z,55.59
2017-05-20T02:55:20.791Z,55.49
2017-05-20T02:56:22.136Z,55.59
2017-05-20T02:57:23.477Z,55.68
2017-05-20T02:58:24.816Z,55.49
2017-05-20T02:59:26.160Z,55.11
2017-05-20T03:00:27.503Z,54.82
2017-05-20T03:01:28.840Z,55.11
2017-05-20T03:02:30.185Z,54.63
2017-05-20T03:03:31.525Z,54.63
2017-05-20T03:04:32.867Z,55.01
2017-05-20T03:05:34.206Z,54.43
2017-05-20T03:06:35.544Z,54.63
2017-05-20T03:07:36.884Z,54.63
2017-05-20T03:08:38.222Z,55.11
2017-05-20T03:09:39.562Z,55.18
2017-05-20T03:10:40.906Z,55.18
2017-05-20T03:11:42.247Z,55.08
2017-05-20T03:12:43.583Z,55.20
2017-05-20T03:13:44.932Z,55.40
2017-05-20T03:14:46.272Z,55.30
2017-05-20T03:15:47.613Z,54.82
2017-05-20T03:16:48.951Z,54.72
2017-05-20T03:17:50.296Z,54.34
2017-05-20T03:18:51.639Z,54.63
2017-05-20T03:19:52.976Z,55.01
2017-05-20T03:20:54.316Z,55.01
2017-05-20T03:21:55.660Z,55.08
2017-05-20T03:22:57.005Z,55.18
2017-05-20T03:23:58.344Z,55.76
2017-05-20T03:24:59.691Z,55.27
2017-05-20T03:26:01.033Z,55.08
2017-05-20T03:27:02.370Z,55.08
2017-05-20T03:28:03.711Z,55.46
2017-05-20T03:29:05.060Z,55.37
2017-05-20T03:30:06.399Z,55.08
2017-05-20T03:31:07.741Z,55.46
2017-05-20T03:32:09.084Z,55.46
2017-05-20T03:33:10.430Z,55.27
2017-05-20T03:34:11.770Z,55.08
2017-05-20T03:35:13.112Z,55.27
2017-05-20T03:36:14.457Z,55.18
2017-05-20T03:37:15.800Z,55.18
2017-05-20T03:38:17.146Z,55.27
2017-05-20T03:39:18.486Z,55.37
2017-05-20T03:40:19.834Z,54.99
2017-05-20T03:41:21.169Z,55.08
2017-05-20T03:42:22.516Z,54.89
2017-05-20T03:43:23.860Z,55.18
2017-05-20T03:44:25.204Z,55.46
2017-05-20T03:45:26.549Z,55.18
2017-05-20T03:46:27.887Z,55.08
2017-05-20T03:47:29.241Z,55.27
2017-05-20T03:48:30.583Z,55.08
2017-05-20T03:49:31.929Z,54.53
2017-05-20T03:50:33.263Z,54.60
2017-05-20T03:51:34.608Z,54.50
2017-05-20T03:52:35.951Z,54.79
2017-05-20T03:53:37.297Z,54.60
2017-05-20T03:54:38.689Z,54.22
2017-05-20T03:55:39.988Z,54.60
2017-05-20T03:56:41.347Z,54.69
2017-05-20T03:57:42.683Z,54.99
2017-05-20T03:58:44.026Z,54.79
2017-05-20T03:59:45.367Z,54.60
2017-05-20T04:00:46.710Z,55.46
2017-05-20T04:01:48.054Z,54.79
2017-05-20T04:02:49.404Z,54.99
2017-05-20T04:03:50.738Z,54.69
2017-05-20T04:04:52.084Z,54.60
2017-05-20T04:05:53.431Z,54.69
2017-05-20T04:06:54.772Z,54.31
2017-05-20T04:07:56.117Z,54.41
2017-05-20T04:08:57.460Z,53.92
2017-05-20T04:09:58.798Z,53.64
2017-05-20T04:11:00.139Z,53.57
2017-05-20T04:12:01.478Z,53.92
2017-05-20T04:13:02.822Z,53.92
2017-05-20T04:14:04.165Z,54.22
2017-05-20T04:15:05.518Z,54.89
2017-05-20T04:16:06.864Z,55.27
2017-05-20T04:17:08.210Z,55.44
2017-05-20T04:18:09.549Z,55.73
2017-05-20T04:19:10.890Z,55.73
2017-05-20T04:20:12.228Z,55.34
2017-05-20T04:21:13.570Z,55.63
2017-05-20T04:22:14.909Z,55.27
2017-05-20T04:23:16.256Z,54.69
2017-05-20T04:24:17.598Z,54.60
2017-05-20T04:25:18.937Z,54.31
2017-05-20T04:26:20.284Z,54.60
2017-05-20T04:27:21.621Z,54.79
2017-05-20T04:28:22.992Z,54.50
2017-05-20T04:29:24.336Z,54.41
2017-05-20T04:30:25.677Z,54.79
2017-05-20T04:31:27.023Z,54.69
2017-05-20T04:32:28.364Z,54.60
2017-05-20T04:33:29.707Z,54.96
2017-05-20T04:34:31.048Z,55.15
2017-05-20T04:35:32.391Z,55.24
2017-05-20T04:36:33.745Z,55.53
2017-05-20T04:37:35.097Z,54.86
2017-05-20T04:38:36.439Z,55.05
2017-05-20T04:39:37.777Z,55.34
2017-05-20T04:40:39.116Z,55.18
2017-05-20T04:41:40.456Z,54.50
2017-05-20T04:42:41.804Z,54.41
2017-05-20T04:43:43.155Z,54.31
2017-05-20T04:44:44.497Z,54.41
2017-05-20T04:45:45.838Z,54.41
2017-05-20T04:46:47.180Z,54.41
2017-05-20T04:47:48.524Z,54.22
2017-05-20T04:48:49.867Z,54.50
2017-05-20T04:49:51.215Z,54.41
2017-05-20T04:50:52.552Z,54.22
2017-05-20T04:51:53.897Z,54.79
2017-05-20T04:52:55.245Z,54.41
2017-05-20T04:53:56.734Z,54.22
2017-05-20T04:54:58.143Z,53.92
2017-05-20T04:55:59.498Z,54.02
2017-05-20T04:57:00.843Z,53.64
2017-05-20T04:58:02.191Z,53.64
2017-05-20T04:59:03.540Z,54.12
2017-05-20T05:00:04.898Z,54.02
2017-05-20T05:01:06.257Z,54.00
2017-05-20T05:02:07.599Z,54.41
2017-05-20T05:03:08.948Z,54.22
2017-05-20T05:04:10.294Z,54.02
2017-05-20T05:05:11.641Z,53.45
2017-05-20T05:06:12.999Z,53.54
2017-05-20T05:07:14.347Z,53.54
2017-05-20T05:08:15.692Z,53.06
2017-05-20T05:09:17.037Z,53.74
2017-05-20T05:10:18.378Z,53.83
2017-05-20T05:11:19.726Z,53.45
2017-05-20T05:12:21.074Z,53.54
2017-05-20T05:13:22.421Z,53.16
2017-05-20T05:14:23.763Z,53.83
2017-05-20T05:15:25.105Z,53.74
2017-05-20T05:16:26.454Z,53.64
2017-05-20T05:17:27.802Z,53.64
2017-05-20T05:18:29.147Z,53.74
2017-05-20T05:19:30.493Z,53.54
2017-05-20T05:20:31.842Z,53.16
2017-05-20T05:21:33.182Z,53.83
2017-05-20T05:22:34.529Z,53.83
2017-05-20T05:23:35.875Z,54.19
2017-05-20T05:24:37.220Z,53.74
2017-05-20T05:25:38.564Z,54.12
2017-05-20T05:26:39.909Z,53.80
2017-05-20T05:27:41.255Z,53.90
2017-05-20T05:28:42.603Z,54.09
2017-05-20T05:29:43.943Z,53.83
2017-05-20T05:30:45.284Z,54.02
2017-05-20T05:31:46.630Z,53.83
2017-05-20T05:32:47.980Z,53.35
2017-05-20T05:33:49.322Z,53.74
2017-05-20T05:34:50.669Z,53.54
2017-05-20T05:35:52.007Z,53.45
2017-05-20T05:36:53.352Z,54.00
2017-05-20T05:37:54.693Z,54.00
2017-05-20T05:38:56.041Z,54.38
2017-05-20T05:39:57.385Z,53.83
2017-05-20T05:40:58.733Z,53.74
2017-05-20T05:42:00.076Z,53.54
2017-05-20T05:43:01.418Z,53.64
2017-05-20T05:44:02.761Z,53.83
2017-05-20T05:45:04.107Z,54.47
2017-05-20T05:46:05.457Z,54.38
2017-05-20T05:47:06.803Z,53.92
2017-05-20T05:48:08.145Z,53.64
2017-05-20T05:49:09.489Z,53.83
2017-05-20T05:50:10.833Z,53.74
2017-05-20T05:51:12.178Z,53.45
2017-05-20T05:52:13.524Z,53.35
2017-05-20T05:53:14.870Z,53.64
2017-05-20T05:54:16.210Z,53.45
2017-05-20T05:55:17.556Z,53.54
2017-05-20T05:56:18.901Z,53.54
2017-05-20T05:57:20.240Z,53.64
2017-05-20T05:58:21.585Z,53.64
2017-05-20T05:59:22.933Z,53.35
2017-05-20T06:00:24.284Z,53.45
2017-05-20T06:01:25.631Z,53.16
2017-05-20T06:02:26.975Z,53.54
2017-05-20T06:03:28.318Z,52.97
2017-05-20T06:04:29.662Z,53.16
2017-05-20T06:05:31.003Z,53.35
2017-05-20T06:06:32.350Z,53.35
2017-05-20T06:07:33.702Z,53.54
2017-05-20T06:08:35.046Z,53.45
2017-05-20T06:09:36.391Z,53.83
2017-05-20T06:10:37.734Z,53.25
2017-05-20T06:11:39.078Z,53.35
2017-05-20T06:12:40.415Z,53.83
2017-05-20T06:13:41.764Z,53.83
2017-05-20T06:14:43.105Z,53.45
2017-05-20T06:15:44.447Z,54.00
2017-05-20T06:16:45.795Z,54.02
2017-05-20T06:17:47.143Z,53.35
2017-05-20T06:18:48.485Z,53.45
2017-05-20T06:19:49.836Z,53.45
2017-05-20T06:20:51.178Z,53.64
2017-05-20T06:21:52.524Z,53.45
2017-05-20T06:22:53.868Z,53.64
2017-05-20T06:23:55.217Z,53.45
2017-05-20T06:24:56.563Z,53.74
2017-05-20T06:25:57.905Z,53.25
2017-05-20T06:26:59.250Z,53.35
2017-05-20T06:28:00.595Z,53.64
2017-05-20T06:29:01.936Z,53.64
2017-05-20T06:30:03.285Z,53.25
2017-05-20T06:31:04.630Z,53.64
2017-05-20T06:32:05.978Z,53.83
2017-05-20T06:33:07.320Z,53.74
2017-05-20T06:34:08.677Z,53.45
2017-05-20T06:35:10.018Z,53.25
2017-05-20T06:36:11.369Z,53.35
2017-05-20T06:37:12.714Z,53.16
2017-05-20T06:38:14.061Z,52.77
2017-05-20T06:39:15.407Z,53.06
2017-05-20T06:40:16.753Z,53.64
2017-05-20T06:41:18.095Z,53.06
2017-05-20T06:42:19.438Z,53.54
2017-05-20T06:43:20.784Z,53.16
2017-05-20T06:44:22.135Z,52.97
2017-05-20T06:45:23.482Z,53.35
2017-05-20T06:46:24.827Z,53.06
2017-05-20T06:47:26.174Z,53.25
2017-05-20T06:48:27.519Z,52.87
2017-05-20T06:49:28.875Z,52.77
2017-05-20T06:50:30.222Z,52.77
2017-05-20T06:51:31.568Z,52.77
2017-05-20T06:52:32.921Z,52.97
2017-05-20T06:53:34.267Z,52.87
2017-05-20T06:54:35.619Z,52.51
2017-05-20T06:55:36.965Z,52.87
2017-05-20T06:56:38.316Z,52.99
2017-05-20T06:57:39.661Z,52.87
2017-05-20T06:58:41.020Z,53.06
2017-05-20T06:59:42.359Z,52.70
2017-05-20T07:00:43.711Z,52.51
2017-05-20T07:01:45.058Z,52.58
2017-05-20T07:02:46.396Z,52.99
2017-05-20T07:03:47.742Z,53.16
2017-05-20T07:04:49.084Z,52.61
2017-05-20T07:05:50.431Z,52.61
2017-05-20T07:06:51.777Z,52.58
2017-05-20T07:07:53.125Z,52.61
2017-05-20T07:08:54.478Z,52.32
2017-05-20T07:09:55.819Z,52.42
2017-05-20T07:10:57.162Z,52.51
2017-05-20T07:11:58.512Z,52.42
2017-05-20T07:12:59.863Z,52.61
2017-05-20T07:14:01.199Z,52.22
2017-05-20T07:15:02.546Z,52.32
2017-05-20T07:16:03.902Z,52.32
2017-05-20T07:17:05.247Z,52.22
2017-05-20T07:18:06.597Z,52.03
2017-05-20T07:19:07.942Z,52.22
2017-05-20T07:20:09.300Z,52.42
2017-05-20T07:21:10.650Z,53.76
2017-05-20T07:22:12.004Z,53.09
2017-05-20T07:23:13.354Z,53.38
2017-05-20T07:24:14.715Z,52.63
2017-05-20T07:25:16.062Z,52.06
2017-05-20T07:26:17.410Z,52.63
2017-05-20T07:27:18.759Z,51.67
2017-05-20T07:28:20.104Z,52.25
2017-05-20T07:29:21.453Z,52.25
2017-05-20T07:30:22.798Z,52.15
2017-05-20T07:31:24.142Z,52.25
2017-05-20T07:32:25.496Z,52.06
2017-05-20T07:33:26.839Z,51.84
2017-05-20T07:34:28.182Z,52.22
2017-05-20T07:35:29.534Z,52.03
2017-05-20T07:36:30.883Z,52.89
2017-05-20T07:37:32.224Z,52.70
2017-05-20T07:38:33.590Z,54.08
2017-05-20T07:39:34.935Z,53.50
2017-05-20T07:40:36.285Z,52.54
2017-05-20T07:41:37.631Z,52.73
2017-05-20T07:42:38.984Z,52.63
2017-05-20T07:43:40.336Z,52.25
2017-05-20T07:44:41.693Z,52.06
2017-05-20T07:45:43.038Z,51.38
2017-05-20T07:46:44.385Z,51.57
2017-05-20T07:47:45.731Z,51.38
2017-05-20T07:48:47.079Z,51.86
2017-05-20T07:49:48.422Z,51.86
2017-05-20T07:50:49.777Z,52.15
2017-05-20T07:51:51.150Z,51.86
2017-05-20T07:52:52.487Z,51.96
2017-05-20T07:53:53.835Z,51.96
2017-05-20T07:54:55.190Z,51.96
2017-05-20T07:55:56.540Z,51.67
2017-05-20T07:56:57.890Z,52.15
2017-05-20T07:57:59.233Z,52.25
2017-05-20T07:59:00.582Z,51.76
2017-05-20T08:00:01.929Z,52.15
2017-05-20T08:01:03.279Z,51.48
2017-05-20T08:02:04.628Z,51.48
2017-05-20T08:03:05.977Z,51.57
2017-05-20T08:04:07.323Z,51.96
2017-05-20T08:05:08.672Z,51.48
2017-05-20T08:06:10.040Z,51.09
2017-05-20T08:07:11.385Z,51.57
2017-05-20T08:08:12.730Z,51.57
2017-05-20T08:09:14.080Z,51.67
2017-05-20T08:10:15.442Z,51.67
2017-05-20T08:11:16.792Z,51.86
2017-05-20T08:12:18.143Z,51.79
2017-05-20T08:13:19.489Z,51.70
2017-05-20T08:14:20.925Z,51.21
2017-05-20T08:15:22.283Z,50.61
2017-05-20T08:16:23.630Z,50.61
2017-05-20T08:17:24.976Z,50.71
2017-05-20T08:18:26.331Z,50.32
2017-05-20T08:19:27.668Z,50.23
2017-05-20T08:20:29.012Z,50.25
2017-05-20T08:21:30.365Z,50.35
2017-05-20T08:22:31.706Z,49.87
2017-05-20T08:23:33.056Z,50.23
2017-05-20T08:24:34.407Z,50.35
2017-05-20T08:25:35.758Z,49.87
2017-05-20T08:26:37.108Z,49.87
2017-05-20T08:27:38.463Z,50.15
2017-05-20T08:28:39.810Z,50.83
2017-05-20T08:29:41.155Z,50.73
2017-05-20T08:30:42.502Z,50.06
2017-05-20T08:31:43.848Z,50.35
2017-05-20T08:32:46.667Z,50.83
2017-05-20T08:33:48.022Z,50.83
2017-05-20T08:34:49.367Z,50.45
2017-05-20T08:35:50.717Z,50.73
2017-05-20T08:36:52.062Z,50.35
2017-05-20T08:37:53.407Z,49.68
2017-05-20T08:38:54.756Z,50.15
2017-05-20T08:39:56.112Z,49.87
2017-05-20T08:40:57.465Z,49.58
2017-05-20T08:41:58.831Z,50.25
2017-05-20T08:43:00.161Z,50.45
2017-05-20T08:44:01.510Z,50.63
2017-05-20T08:45:02.855Z,49.68
2017-05-20T08:46:04.213Z,50.15
2017-05-20T08:47:05.564Z,50.73
2017-05-20T08:48:06.921Z,50.06
2017-05-20T08:49:08.265Z,50.25
2017-05-20T08:50:09.607Z,49.68
2017-05-20T08:51:10.954Z,47.75
2017-05-20T08:52:12.299Z,48.52
2017-05-20T08:53:13.646Z,48.30
2017-05-20T08:54:14.996Z,48.81
2017-05-20T08:55:16.344Z,48.69
2017-05-20T08:56:17.700Z,49.36
2017-05-20T08:57:19.047Z,48.97
2017-05-20T08:58:20.396Z,48.88
2017-05-20T08:59:21.740Z,48.30
2017-05-20T09:00:23.094Z,49.27
2017-05-20T09:01:24.443Z,49.10
2017-05-20T09:02:25.792Z,49.48
2017-05-20T09:03:27.145Z,49.29
2017-05-20T09:04:28.492Z,49.10
2017-05-20T09:05:29.845Z,49.29
2017-05-20T09:06:31.194Z,48.81
2017-05-20T09:07:32.544Z,49.38
2017-05-20T09:08:33.905Z,49.19
2017-05-20T09:09:35.271Z,49.38
2017-05-20T09:10:36.617Z,48.81
2017-05-20T09:11:37.961Z,49.00
2017-05-20T09:12:39.308Z,49.19
2017-05-20T09:13:40.653Z,49.48
2017-05-20T09:14:41.997Z,49.48
2017-05-20T09:15:43.348Z,49.10
2017-05-20T09:16:44.708Z,49.00
2017-05-20T09:17:46.060Z,48.33
2017-05-20T09:18:47.402Z,48.81
2017-05-20T09:19:48.751Z,49.19
2017-05-20T09:20:50.119Z,49.48
2017-05-20T09:21:51.464Z,49.19
2017-05-20T09:22:52.826Z,49.00
2017-05-20T09:23:54.175Z,48.71
2017-05-20T09:24:55.521Z,49.00
2017-05-20T09:25:58.560Z,48.81
2017-05-20T09:26:59.908Z,48.52
2017-05-20T09:28:01.261Z,48.33
2017-05-20T09:29:02.612Z,48.43
2017-05-20T09:30:03.961Z,48.71
2017-05-20T09:31:05.315Z,48.81
2017-05-20T09:32:06.652Z,48.43
2017-05-20T09:33:07.994Z,48.33
2017-05-20T09:34:09.338Z,48.03
2017-05-20T09:35:10.683Z,48.03
2017-05-20T09:36:12.026Z,47.46
2017-05-20T09:37:13.374Z,47.17
2017-05-20T09:38:14.727Z,47.46
2017-05-20T09:39:16.082Z,47.56
2017-05-20T09:40:17.422Z,47.56
2017-05-20T09:41:18.768Z,47.36
2017-05-20T09:42:20.109Z,47.36
2017-05-20T09:43:21.456Z,47.46
2017-05-20T09:44:22.800Z,47.36
2017-05-20T09:45:24.146Z,47.17
2017-05-20T09:46:25.499Z,47.27
2017-05-20T09:47:26.842Z,46.11
2017-05-20T09:48:28.202Z,46.69
2017-05-20T09:49:29.562Z,46.62
2017-05-20T09:50:30.935Z,45.46
2017-05-20T09:51:32.284Z,45.84
2017-05-20T09:52:33.639Z,45.07
2017-05-20T09:53:34.988Z,45.83
2017-05-20T09:54:36.333Z,44.31
2017-05-20T09:55:37.693Z,45.36
2017-05-20T09:56:39.032Z,44.40
2017-05-20T09:57:40.385Z,44.40
2017-05-20T09:58:41.728Z,45.27
2017-05-20T09:59:43.103Z,44.49
2017-05-20T10:00:44.446Z,43.73
2017-05-20T10:01:45.797Z,44.40
2017-05-20T10:02:47.144Z,44.28
2017-05-20T10:03:48.492Z,45.25
2017-05-20T10:04:49.842Z,44.38
2017-05-20T10:05:51.198Z,45.34
2017-05-20T10:06:52.551Z,45.53
2017-05-20T10:07:53.900Z,45.73
2017-05-20T10:08:55.242Z,46.21
2017-05-20T10:09:56.586Z,46.50
2017-05-20T10:10:57.931Z,47.10
2017-05-20T10:11:59.280Z,46.71
2017-05-20T10:13:00.628Z,46.71
2017-05-20T10:14:01.980Z,46.71
2017-05-20T10:15:03.325Z,46.71
2017-05-20T10:16:04.715Z,47.10
2017-05-20T10:17:06.060Z,46.04
2017-05-20T10:18:07.418Z,46.35
2017-05-20T10:19:08.770Z,46.06
2017-05-20T10:20:10.114Z,46.04
2017-05-20T10:21:11.462Z,46.73
2017-05-20T10:22:12.843Z,47.12
2017-05-20T10:23:14.199Z,46.93
2017-05-20T10:24:15.549Z,45.97
2017-05-20T10:25:16.902Z,46.64
2017-05-20T10:26:18.263Z,46.93
2017-05-20T10:27:19.616Z,46.25
2017-05-20T10:28:20.969Z,46.25
2017-05-20T10:29:22.311Z,46.25
2017-05-20T10:30:23.663Z,46.06
2017-05-20T10:31:25.009Z,46.25
2017-05-20T10:32:26.353Z,45.97
2017-05-20T10:33:27.738Z,45.97
2017-05-20T10:34:29.087Z,45.87
2017-05-20T10:35:30.453Z,46.06
2017-05-20T10:36:31.807Z,45.97
2017-05-20T10:37:33.158Z,45.87
2017-05-20T10:38:34.507Z,45.97
2017-05-20T10:39:35.853Z,45.77
2017-05-20T10:40:37.200Z,48.08
2017-05-20T10:41:38.559Z,45.97
2017-05-20T10:42:39.910Z,47.03
2017-05-20T10:43:41.282Z,46.06
2017-05-20T10:44:42.630Z,46.73
2017-05-20T10:45:43.981Z,45.68
2017-05-20T10:46:45.352Z,47.12
2017-05-20T10:47:46.712Z,46.64
2017-05-20T10:48:48.063Z,45.77
2017-05-20T10:49:49.433Z,46.06
2017-05-20T10:50:50.782Z,45.68
2017-05-20T10:51:52.124Z,45.10
2017-05-20T10:52:53.496Z,45.87
2017-05-20T10:53:54.857Z,45.20
2017-05-20T10:54:56.232Z,44.42
2017-05-20T10:55:57.592Z,45.00
2017-05-20T10:56:58.946Z,44.90
2017-05-20T10:58:00.301Z,43.75
2017-05-20T10:59:01.643Z,44.52
2017-05-20T11:00:03.019Z,45.21
2017-05-20T11:01:04.371Z,44.64
2017-05-20T11:02:05.728Z,44.54
2017-05-20T11:03:07.096Z,44.45
2017-05-20T11:04:08.454Z,43.00
2017-05-20T11:05:09.802Z,43.48
2017-05-20T11:06:11.211Z,43.58
2017-05-20T11:07:12.513Z,43.41
2017-05-20T11:08:13.928Z,43.70
2017-05-20T11:09:15.287Z,43.50
2017-05-20T11:10:16.655Z,42.44
2017-05-20T11:11:18.011Z,43.12
2017-05-20T11:12:19.380Z,42.63
2017-05-20T11:13:20.737Z,42.75
2017-05-20T11:14:22.109Z,41.78
2017-05-20T11:15:23.510Z,41.98
2017-05-20T11:16:24.877Z,41.60
2017-05-20T11:17:26.247Z,40.72
2017-05-20T11:18:27.623Z,41.50
2017-05-20T11:19:29.009Z,39.76
2017-05-20T11:20:30.359Z,40.15
2017-05-20T11:21:31.751Z,40.34
2017-05-20T11:22:33.105Z,40.53
2017-05-20T11:23:34.479Z,41.02
2017-05-20T11:24:35.838Z,41.78
2017-05-20T11:25:37.183Z,41.40
2017-05-20T11:26:38.542Z,40.72
2017-05-20T11:27:39.892Z,41.20
2017-05-20T11:28:41.270Z,40.92
2017-05-20T11:29:42.624Z,40.63
2017-05-20T11:30:43.985Z,40.36
2017-05-20T11:31:45.365Z,40.07
2017-05-20T11:32:46.726Z,40.45
2017-05-20T11:33:48.088Z,40.45
2017-05-20T11:34:49.458Z,40.65
2017-05-20T11:35:50.814Z,40.36
2017-05-20T11:36:52.171Z,40.15
2017-05-20T11:37:53.531Z,41.02
2017-05-20T11:38:54.895Z,40.82
2017-05-20T11:39:56.262Z,40.15
2017-05-20T11:40:57.639Z,40.92
2017-05-20T11:41:58.990Z,41.02
2017-05-20T11:43:00.353Z,39.86
2017-05-20T11:44:01.758Z,40.05
2017-05-20T11:45:03.110Z,40.72
2017-05-20T11:46:04.471Z,41.40
2017-05-20T11:47:05.854Z,41.02
2017-05-20T11:48:07.201Z,40.24
2017-05-20T11:49:08.550Z,41.02
2017-05-20T11:50:09.924Z,40.92
2017-05-20T11:51:11.284Z,40.53
2017-05-20T11:52:12.628Z,40.44
2017-05-20T11:53:13.988Z,40.72
2017-05-20T11:54:15.358Z,40.92
2017-05-20T11:55:16.712Z,41.50
2017-05-20T11:56:18.107Z,41.30
2017-05-20T11:57:19.414Z,41.50
2017-05-20T11:58:20.797Z,41.40
2017-05-20T11:59:22.155Z,41.50
2017-05-20T12:00:23.507Z,41.60
2017-05-20T12:01:24.861Z,41.11
2017-05-20T12:02:26.216Z,41.40
2017-05-20T12:03:27.566Z,41.20
2017-05-20T12:04:28.930Z,41.11
2017-05-20T12:05:30.287Z,41.57
2017-05-20T12:06:31.631Z,40.44
2017-05-20T12:07:32.983Z,41.38
2017-05-20T12:08:34.352Z,41.78
2017-05-20T12:09:35.713Z,41.50
2017-05-20T12:10:37.059Z,41.67
2017-05-20T12:11:38.415Z,42.05
2017-05-20T12:12:39.782Z,41.60
2017-05-20T12:13:41.120Z,41.20
2017-05-20T12:14:42.470Z,41.60
2017-05-20T12:15:43.826Z,41.30
2017-05-20T12:16:45.185Z,41.40
2017-05-20T12:17:46.570Z,41.78
2017-05-20T12:18:47.914Z,41.78
2017-05-20T12:19:49.258Z,41.50
2017-05-20T12:20:50.614Z,41.40
2017-05-20T12:21:51.971Z,41.11
2017-05-20T12:22:53.346Z,41.50
2017-05-20T12:23:54.703Z,40.53
2017-05-20T12:24:56.050Z,41.57
2017-05-20T12:25:57.417Z,41.50
2017-05-20T12:26:58.777Z,40.22
2017-05-20T12:28:00.139Z,40.61
2017-05-20T12:29:01.502Z,40.90
2017-05-20T12:30:02.867Z,40.90
2017-05-20T12:31:04.203Z,41.38
2017-05-20T12:32:05.559Z,41.38
2017-05-20T12:33:06.904Z,41.86
2017-05-20T12:34:08.248Z,41.77
2017-05-20T12:35:09.596Z,41.96
2017-05-20T12:36:10.962Z,41.86
2017-05-20T12:37:12.309Z,42.18
2017-05-20T12:38:13.657Z,41.78
2017-05-20T12:39:15.015Z,41.60
2017-05-20T12:40:16.370Z,41.96
2017-05-20T12:41:17.720Z,41.77
2017-05-20T12:42:19.070Z,41.60
2017-05-20T12:43:20.420Z,41.86
2017-05-20T12:44:21.767Z,42.18
2017-05-20T12:45:23.117Z,41.67
2017-05-20T12:46:24.468Z,41.38
2017-05-20T12:47:25.823Z,41.28
2017-05-20T12:48:27.178Z,41.88
2017-05-20T12:49:28.567Z,41.67
2017-05-20T12:50:29.920Z,41.57
2017-05-20T12:51:31.279Z,42.08
2017-05-20T12:52:32.632Z,41.98
2017-05-20T12:53:33.984Z,41.69
2017-05-20T12:54:35.335Z,41.60
2017-05-20T12:55:36.682Z,41.98
2017-05-20T12:56:38.039Z,41.60
2017-05-20T12:57:39.391Z,41.69
2017-05-20T12:58:40.743Z,41.69
2017-05-20T12:59:42.094Z,41.60
2017-05-20T13:00:43.476Z,41.78
2017-05-20T13:01:44.825Z,40.92
2017-05-20T13:02:46.180Z,40.82
2017-05-20T13:03:47.529Z,40.42
2017-05-20T13:04:48.880Z,40.63
2017-05-20T13:05:50.234Z,40.42
2017-05-20T13:06:51.588Z,39.94
2017-05-20T13:07:52.939Z,40.03
2017-05-20T13:08:54.286Z,40.80
2017-05-20T13:09:55.637Z,41.48
2017-05-20T13:10:57.012Z,41.57
2017-05-20T13:11:58.367Z,41.28
2017-05-20T13:12:59.723Z,41.50
2017-05-20T13:14:01.079Z,41.69